Overview Statistics Trail Chart Weather Telemetry Raw packets
 

This is the latest recevied weather packets stored in our database for station/object K0CPM-2. If no packets are shown the sender has not sent any weather packets the latest 10 day(s).

<< 33 34 35 36 37 38 39 >>
Time Temp. Humidity Pressure Rain* Wind** Luminosity Snow
1787790681 31.11° C 77% 1010 hPa 0 mm - - -
1787789722 31.67° C 74% 1009.8 hPa 0 mm - - -
1787788838 32.78° C 68% 1009.9 hPa 0 mm - - -
1787787922 33.33° C 61% 1010 hPa 0 mm - - -
1787787019 33.89° C 59% 1010.1 hPa 0 mm - - -
1787786129 34.44° C 58% 1010.1 hPa 0 mm - - -
1787785219 35° C 55% 1010 hPa 0 mm - - -
1787784321 35.56° C 56% 1009.8 hPa 0 mm - - -
1787783417 35.56° C 54% 1009.9 hPa 0 mm - - -
1787782521 36.67° C 52% 1009.9 hPa 0 mm - - -
1787781613 36.67° C 51% 1010.3 hPa 0 mm - - -
1787780718 36.11° C 58% 1010.4 hPa 0 mm - - -
1787779810 37.22° C 52% 1010.8 hPa 0 mm - - -
1787778908 37.22° C 54% 1010.8 hPa 0 mm - - -
1787778006 36.67° C 54% 1011 hPa 0 mm - - -
1787777106 36.67° C 53% 1011.3 hPa 0 mm - - -
1787776260 36.67° C 53% 1011.4 hPa 0 mm - - -
1787775387 36.67° C 52% 1011.7 hPa 0 mm - - -
1787774523 36.67° C 52% 1011.6 hPa 0 mm - - -
1787773562 36.11° C 53% 1011.7 hPa 0 mm - - -
1787772676 36.11° C 54% 1012.1 hPa 0 mm - - -
1787771769 36.67° C 56% 1012.3 hPa 0 mm - - -
1787770848 36.11° C 56% 1012.5 hPa 0 mm - - -
1787769947 36.11° C 56% 1012.6 hPa 0 mm - - -
1787769051 35.56° C 59% 1012.8 hPa 0 mm - - -

* Rain latest hour (hover to see other rain measurements)
** Current wind speed in m/s (hover to see current wind gust speed)